Time;durP1;ratioP1;P1;durP2;ratioP2;P2;SDS_P1;SDS_P2;PMS_P1;PMS_P2;Temp;Humidity;BMP_temperature;BMP_pressure;BME280_temperature;BME280_humidity;BME280_pressure;Samples;Min_cycle;Max_cycle;Signal;HPM_P1;HPM_P2
2023/05/15 00:00:16;;;;;;;19.35;10.90;;;14.70;99.90;;;;;;4974525;28;20093;-54
2023/05/15 00:02:43;;;;;;;24.10;11.93;;;14.60;99.90;;;;;;4974557;28;20114;-51
2023/05/15 00:05:09;;;;;;;27.63;13.38;;;14.60;99.90;;;;;;4974331;28;20085;-54
2023/05/15 00:07:36;;;;;;;26.30;12.10;;;14.60;99.90;;;;;;4974617;28;20057;-53
2023/05/15 00:10:02;;;;;;;28.23;12.70;;;14.60;99.90;;;;;;4974362;28;20096;-51
2023/05/15 00:12:28;;;;;;;28.95;13.43;;;14.50;99.90;;;;;;4974011;28;20038;-54
2023/05/15 00:14:54;;;;;;;26.70;12.25;;;14.50;99.90;;;;;;4974660;28;20034;-52
2023/05/15 00:17:19;;;;;;;27.73;12.98;;;14.50;99.90;;;;;;4974480;28;20034;-50
2023/05/15 00:19:45;;;;;;;29.65;13.43;;;14.40;99.90;;;;;;4974308;28;20043;-51
2023/05/15 00:22:11;;;;;;;29.95;13.15;;;14.30;99.90;;;;;;4973785;28;20047;-54
2023/05/15 00:24:37;;;;;;;25.75;12.50;;;14.30;99.90;;;;;;4974579;28;20065;-53
2023/05/15 00:27:03;;;;;;;25.33;12.90;;;14.30;99.90;;;;;;4974164;28;20035;-51
2023/05/15 00:29:29;;;;;;;27.10;12.48;;;14.20;99.90;;;;;;4972827;28;20030;-54
2023/05/15 00:31:55;;;;;;;31.70;13.27;;;14.20;99.90;;;;;;4973566;28;20450;-54
2023/05/15 00:34:24;;;;;;;27.85;12.55;;;14.10;99.90;;;;;;4974101;28;20121;-50
2023/05/15 00:36:50;;;;;;;27.55;12.07;;;14.10;99.90;;;;;;4973964;28;20102;-52
2023/05/15 00:39:16;;;;;;;28.58;12.65;;;14.00;99.90;;;;;;4973658;28;20034;-52
2023/05/15 00:41:43;;;;;;;22.30;12.45;;;14.00;99.90;;;;;;4973436;28;20027;-50
2023/05/15 00:44:11;;;;;;;29.17;13.38;;;14.00;99.90;;;;;;4974779;28;20082;-50
2023/05/15 00:46:38;;;;;;;23.63;12.68;;;13.90;99.90;;;;;;4972482;28;20038;-53
2023/05/15 00:49:05;;;;;;;21.95;12.23;;;13.90;99.90;;;;;;4973775;28;20034;-51
2023/05/15 00:51:31;;;;;;;25.42;12.70;;;13.90;99.90;;;;;;4973396;28;20035;-50
2023/05/15 00:53:58;;;;;;;24.65;12.90;;;13.80;99.90;;;;;;4973524;28;20030;-51
2023/05/15 00:56:29;;;;;;;23.08;12.32;;;13.70;99.90;;;;;;4972261;28;20039;-50
2023/05/15 00:58:58;;;;;;;25.27;12.68;;;13.70;99.90;;;;;;4973879;28;20034;-50
2023/05/15 01:01:24;;;;;;;24.52;12.20;;;13.60;99.90;;;;;;4971987;28;20026;-52
2023/05/15 01:03:50;;;;;;;23.83;11.88;;;13.60;99.90;;;;;;4973210;28;20109;-54
2023/05/15 01:06:15;;;;;;;25.02;12.65;;;13.50;99.90;;;;;;4971897;28;20038;-53
2023/05/15 01:08:44;;;;;;;24.45;12.77;;;13.40;99.90;;;;;;4973299;28;20023;-51
2023/05/15 01:11:12;;;;;;;24.98;12.73;;;13.40;99.90;;;;;;4971811;28;20042;-51
2023/05/15 01:13:38;;;;;;;25.52;12.10;;;13.30;99.90;;;;;;4971820;28;20041;-52
2023/05/15 01:16:05;;;;;;;25.67;12.30;;;13.30;99.90;;;;;;4973345;28;20030;-53
2023/05/15 01:18:31;;;;;;;25.25;12.35;;;13.30;99.90;;;;;;4971883;28;20026;-53
2023/05/15 01:21:21;;;;;;;23.35;12.02;;;13.30;99.90;;;;;;4972926;28;20423;-52
2023/05/15 01:24:12;;;;;;;23.17;12.07;;;13.30;99.90;;;;;;4971636;28;20035;-53
2023/05/15 01:26:44;;;;;;;22.35;12.23;;;13.30;99.90;;;;;;4971790;28;20059;-53
2023/05/15 01:29:33;;;;;;;24.00;13.02;;;13.30;99.90;;;;;;4973016;28;20097;-52
2023/05/15 01:32:05;;;;;;;26.15;12.80;;;13.20;99.90;;;;;;4971551;28;20031;-52
2023/05/15 01:34:44;;;;;;;24.65;12.55;;;13.20;99.90;;;;;;4972947;28;20034;-49
2023/05/15 01:37:13;;;;;;;;;;;13.10;99.90;;;;;;4973398;28;20065;-51
2023/05/15 01:39:41;;;;;;;27.47;12.27;;;13.10;99.90;;;;;;4971618;28;19910;-52
2023/05/15 01:42:09;;;;;;;26.52;13.10;;;13.20;99.90;;;;;;4972093;28;20450;-51
2023/05/15 01:44:41;;;;;;;27.87;13.73;;;13.20;99.90;;;;;;4971405;28;20503;-54
2023/05/15 01:47:29;;;;;;;26.58;11.95;;;13.10;99.90;;;;;;4972628;28;20630;-50
2023/05/15 01:49:56;;;;;;;23.15;11.73;;;13.10;99.90;;;;;;4972641;28;20106;-50
2023/05/15 01:52:28;;;;;;;25.55;12.32;;;13.00;99.90;;;;;;4971534;28;20717;-50
2023/05/15 01:54:54;;;;;;;22.83;11.63;;;13.10;99.90;;;;;;4972520;28;20550;-50
2023/05/15 01:57:22;;;;;;;24.33;12.18;;;13.10;99.90;;;;;;4971184;28;20146;-51
2023/05/15 01:59:49;;;;;;;26.08;13.68;;;13.00;99.90;;;;;;4971241;28;20026;-50
2023/05/15 02:02:15;;;;;;;24.48;12.95;;;13.00;99.90;;;;;;4970683;28;20030;-50
2023/05/15 02:04:44;;;;;;;28.20;14.40;;;12.90;99.90;;;;;;4972491;28;20418;-50
2023/05/15 02:07:13;;;;;;;29.70;14.50;;;12.90;99.90;;;;;;4972107;28;20100;-50
2023/05/15 02:09:41;;;;;;;29.13;14.80;;;12.80;99.90;;;;;;4971048;28;20039;-49
2023/05/15 02:12:08;;;;;;;26.07;13.67;;;12.80;99.90;;;;;;4970498;28;20031;-50
2023/05/15 02:14:34;;;;;;;29.10;14.37;;;12.80;99.90;;;;;;4972458;28;20030;-52
2023/05/15 02:17:00;;;;;;;28.00;14.63;;;12.80;99.90;;;;;;4972003;28;20235;-51
2023/05/15 02:19:26;;;;;;;30.73;14.67;;;12.70;99.90;;;;;;4970901;28;20031;-53
2023/05/15 02:21:51;;;;;;;28.20;13.77;;;12.70;99.90;;;;;;4970334;28;20129;-50
2023/05/15 02:24:17;;;;;;;26.50;13.37;;;12.80;99.90;;;;;;4971947;28;20113;-51
2023/05/15 02:27:08;;;;;;;27.50;13.10;;;12.80;99.90;;;;;;4972247;28;20046;-50
2023/05/15 02:29:37;;;;;;;25.53;13.50;;;12.80;99.90;;;;;;4970815;28;20035;-51
2023/05/15 02:32:15;;;;;;;24.63;13.32;;;12.80;99.90;;;;;;4971449;28;20061;-49
2023/05/15 02:35:08;;;;;;;26.53;13.33;;;12.70;99.90;;;;;;4971949;28;20072;-53
2023/05/15 02:37:37;;;;;;;27.50;13.17;;;12.80;99.90;;;;;;4972250;28;20090;-52
2023/05/15 02:40:05;;;;;;;24.38;12.10;;;12.80;99.90;;;;;;4971862;28;20426;-50
2023/05/15 02:42:32;;;;;;;21.98;11.35;;;12.80;99.90;;;;;;4971658;28;20101;-49
2023/05/15 02:45:00;;;;;;;23.70;12.87;;;12.80;99.90;;;;;;4970684;28;20037;-49
2023/05/15 02:47:27;;;;;;;23.07;12.23;;;12.80;99.90;;;;;;4971930;28;20047;-50
2023/05/15 02:49:53;;;;;;;23.37;12.47;;;12.70;99.90;;;;;;4970542;28;20049;-50
2023/05/15 02:52:21;;;;;;;25.35;12.63;;;12.80;99.90;;;;;;4969983;28;20038;-52
2023/05/15 02:54:47;;;;;;;24.40;12.20;;;12.70;99.90;;;;;;4971758;28;20373;-53
2023/05/15 02:57:12;;;;;;;23.73;12.53;;;12.70;99.90;;;;;;4970387;28;20034;-49
2023/05/15 02:59:38;;;;;;;23.63;11.97;;;12.70;99.90;;;;;;4971754;28;20037;-51
2023/05/15 03:02:04;;;;;;;25.70;12.33;;;12.70;99.90;;;;;;4971365;28;20054;-53
2023/05/15 03:04:30;;;;;;;28.73;13.10;;;12.70;99.90;;;;;;4973750;28;20114;-50
2023/05/15 03:06:56;;;;;;;24.00;12.53;;;12.60;99.90;;;;;;4975562;28;20126;-51
2023/05/15 03:09:22;;;;;;;23.40;12.47;;;12.60;99.90;;;;;;4975630;28;20027;-50
2023/05/15 03:11:47;;;;;;;23.07;12.37;;;12.60;99.90;;;;;;4975051;28;20034;-50
2023/05/15 03:14:13;;;;;;;24.97;12.57;;;12.60;99.90;;;;;;4974048;28;20035;-50
2023/05/15 03:16:39;;;;;;;24.27;13.00;;;12.60;99.90;;;;;;4974180;28;20109;-50
2023/05/15 03:19:05;;;;;;;27.50;13.40;;;12.60;99.90;;;;;;4974214;28;20499;-49
2023/05/15 03:21:30;;;;;;;24.93;12.30;;;12.60;99.90;;;;;;4973796;28;20047;-50
2023/05/15 03:23:56;;;;;;;23.37;11.93;;;12.60;99.90;;;;;;4973953;28;20082;-50
2023/05/15 03:26:22;;;;;;;26.97;12.00;;;12.60;99.90;;;;;;4975079;28;20511;-50
2023/05/15 03:28:48;;;;;;;25.67;11.83;;;12.60;99.90;;;;;;4973926;28;20033;-49
2023/05/15 03:31:14;;;;;;;23.97;12.77;;;12.60;99.90;;;;;;4973689;28;20038;-53
2023/05/15 03:33:40;;;;;;;21.83;10.90;;;12.60;99.90;;;;;;4974991;28;20086;-52
2023/05/15 03:36:06;;;;;;;26.03;12.23;;;12.60;99.90;;;;;;4974042;28;20034;-53
2023/05/15 03:38:32;;;;;;;26.37;12.30;;;12.50;99.90;;;;;;4975184;28;20177;-53
2023/05/15 03:40:59;;;;;;;37.10;14.97;;;12.40;99.90;;;;;;4974846;28;20034;-54
2023/05/15 03:43:25;;;;;;;34.57;14.63;;;12.30;99.90;;;;;;4974966;28;20392;-50
2023/05/15 03:45:51;;;;;;;35.17;15.73;;;12.30;99.90;;;;;;4975453;28;20026;-54
2023/05/15 03:48:16;;;;;;;31.17;15.47;;;12.30;99.90;;;;;;4975371;28;20110;-50
2023/05/15 03:50:44;;;;;;;35.27;15.27;;;12.30;99.90;;;;;;4975164;28;20371;-49
2023/05/15 03:53:10;;;;;;;34.70;16.07;;;12.40;99.90;;;;;;4974814;28;20484;-51
2023/05/15 03:55:35;;;;;;;36.03;16.40;;;12.40;99.90;;;;;;4974909;28;20053;-50
2023/05/15 03:58:02;;;;;;;36.73;15.60;;;12.40;99.90;;;;;;4974828;28;20031;-53
2023/05/15 04:00:27;;;;;;;35.23;15.93;;;12.40;99.90;;;;;;4974438;28;20035;-51
2023/05/15 04:02:53;;;;;;;40.83;15.93;;;12.40;99.90;;;;;;4974855;28;20446;-54
2023/05/15 04:05:20;;;;;;;36.90;16.10;;;12.40;99.90;;;;;;4974811;28;20041;-51
2023/05/15 04:07:46;;;;;;;36.43;16.23;;;12.50;99.90;;;;;;4974568;28;20034;-50
2023/05/15 04:10:12;;;;;;;38.83;16.63;;;12.40;99.90;;;;;;4974202;28;20042;-49
2023/05/15 04:12:38;;;;;;;35.77;16.13;;;12.40;99.90;;;;;;4974178;28;20034;-50
2023/05/15 04:15:21;;;;;;;45.70;19.00;;;12.30;99.90;;;;;;4973721;28;20053;-52
2023/05/15 04:17:49;;;;;;;50.40;20.10;;;12.20;99.90;;;;;;4974392;28;20045;-50
2023/05/15 04:20:16;;;;;;;49.60;20.67;;;12.20;99.90;;;;;;4973973;28;20114;-50
2023/05/15 04:22:43;;;;;;;54.53;20.37;;;12.20;99.90;;;;;;4973866;28;20081;-52
2023/05/15 04:25:10;;;;;;;53.83;20.70;;;12.20;99.90;;;;;;4974147;28;20077;-51
2023/05/15 04:27:40;;;;;;;58.87;22.73;;;12.20;99.90;;;;;;4974191;28;20051;-52
2023/05/15 04:30:07;;;;;;;56.13;22.40;;;12.20;99.90;;;;;;4974003;28;20035;-53
2023/05/15 04:32:34;;;;;;;59.00;24.10;;;12.20;99.90;;;;;;4973714;28;20464;-53
2023/05/15 04:35:01;;;;;;;64.83;24.43;;;12.10;99.90;;;;;;4974141;28;20483;-52
2023/05/15 04:37:27;;;;;;;56.50;22.77;;;12.10;99.90;;;;;;4974060;28;20038;-49
2023/05/15 04:39:54;;;;;;;59.40;22.57;;;12.10;99.90;;;;;;4974001;28;20031;-51
2023/05/15 04:42:19;;;;;;;65.77;23.57;;;12.10;99.90;;;;;;4973291;28;20027;-50
2023/05/15 04:44:45;;;;;;;65.10;25.83;;;12.10;99.90;;;;;;4973815;28;20093;-53
2023/05/15 04:47:11;;;;;;;62.77;23.53;;;12.20;99.90;;;;;;4973807;28;20050;-51
2023/05/15 04:49:38;;;;;;;66.20;26.63;;;12.20;99.90;;;;;;4973562;28;20070;-49
2023/05/15 04:52:04;;;;;;;69.13;26.53;;;12.20;99.90;;;;;;4973368;28;20034;-53
2023/05/15 04:54:30;;;;;;;65.13;25.30;;;12.20;99.90;;;;;;4973594;28;20031;-53
2023/05/15 04:56:56;;;;;;;67.60;26.07;;;12.30;99.90;;;;;;4973530;28;20026;-50
2023/05/15 04:59:23;;;;;;;71.07;26.90;;;12.30;99.90;;;;;;4973600;28;20447;-53
2023/05/15 05:01:50;;;;;;;67.07;27.07;;;12.30;99.90;;;;;;4973110;28;20027;-53
2023/05/15 05:04:18;;;;;;;69.20;27.23;;;12.40;99.90;;;;;;4973525;28;20267;-53
2023/05/15 05:06:44;;;;;;;60.87;24.63;;;12.40;99.90;;;;;;4973589;28;20073;-49
2023/05/15 05:09:10;;;;;;;63.87;24.57;;;12.40;99.90;;;;;;4973552;28;20042;-49
2023/05/15 05:11:38;;;;;;;56.20;23.07;;;12.40;99.90;;;;;;4973190;28;20031;-50
2023/05/15 05:14:03;;;;;;;53.63;22.33;;;12.30;99.90;;;;;;4973071;28;20499;-49
2023/05/15 05:16:29;;;;;;;38.77;16.67;;;12.30;99.90;;;;;;4973285;28;20027;-53
2023/05/15 05:18:55;;;;;;;37.10;16.83;;;12.30;99.90;;;;;;4973143;28;20739;-52
2023/05/15 05:21:21;;;;;;;40.60;18.00;;;12.30;99.90;;;;;;4972979;28;20031;-51
2023/05/15 05:23:46;;;;;;;34.63;15.77;;;12.40;99.90;;;;;;4972814;28;20042;-49
2023/05/15 05:26:12;;;;;;;33.93;14.77;;;12.40;99.90;;;;;;4972369;28;20042;-50
2023/05/15 05:28:38;;;;;;;32.50;14.73;;;12.30;99.90;;;;;;4973095;28;20022;-53
2023/05/15 05:31:03;;;;;;;31.00;14.20;;;12.40;99.90;;;;;;4972676;28;20059;-50
2023/05/15 05:33:29;;;;;;;37.13;15.07;;;12.40;99.90;;;;;;4972617;28;20439;-53
2023/05/15 05:35:55;;;;;;;35.13;15.40;;;12.40;99.90;;;;;;4973070;28;20030;-51
2023/05/15 05:38:20;;;;;;;32.87;15.53;;;12.40;99.90;;;;;;4972825;28;20368;-49
2023/05/15 05:40:46;;;;;;;29.57;13.93;;;12.30;99.90;;;;;;4972644;28;20030;-51
2023/05/15 05:43:12;;;;;;;29.43;15.23;;;12.30;99.90;;;;;;4972658;28;20490;-50
2023/05/15 05:45:38;;;;;;;27.10;13.33;;;12.30;99.90;;;;;;4972913;28;20093;-48
2023/05/15 05:48:03;;;;;;;25.67;12.07;;;12.40;99.90;;;;;;4972691;28;20038;-50
2023/05/15 05:50:29;;;;;;;31.33;14.23;;;12.50;99.90;;;;;;4972451;28;20031;-50
2023/05/15 05:52:55;;;;;;;29.07;14.13;;;12.50;99.90;;;;;;4972558;28;20070;-50
2023/05/15 05:55:20;;;;;;;35.17;16.43;;;12.50;99.90;;;;;;4972708;28;20034;-50
2023/05/15 05:57:46;;;;;;;35.47;16.23;;;12.60;99.90;;;;;;4972181;28;20066;-48
2023/05/15 06:00:13;;;;;;;33.25;15.63;;;12.60;99.90;;;;;;4972214;28;20074;-50
2023/05/15 06:02:39;;;;;;;29.23;14.15;;;12.50;99.90;;;;;;4972262;28;20037;-50
2023/05/15 06:05:06;;;;;;;29.50;13.53;;;12.50;99.90;;;;;;4972664;28;20035;-49
2023/05/15 06:07:32;;;;;;;27.52;13.02;;;12.50;99.90;;;;;;4972340;28;20034;-49
2023/05/15 06:09:58;;;;;;;27.50;13.60;;;12.60;99.90;;;;;;4972277;28;20034;-49
2023/05/15 06:12:24;;;;;;;28.85;14.13;;;12.60;99.90;;;;;;4971958;28;20038;-49
2023/05/15 06:14:50;;;;;;;31.20;13.90;;;12.70;99.90;;;;;;4972455;28;20039;-49
2023/05/15 06:17:16;;;;;;;29.95;15.07;;;12.80;99.90;;;;;;4972176;28;20038;-49
2023/05/15 06:19:41;;;;;;;34.33;14.95;;;12.90;99.90;;;;;;4972439;28;20392;-49
2023/05/15 06:22:07;;;;;;;26.63;13.70;;;13.00;99.90;;;;;;4971662;28;20027;-48
2023/05/15 06:24:33;;;;;;;27.00;13.57;;;13.10;99.90;;;;;;4971960;28;20061;-50
2023/05/15 06:26:59;;;;;;;26.33;12.20;;;13.20;99.90;;;;;;4971993;28;20033;-50
2023/05/15 06:29:25;;;;;;;23.85;11.90;;;13.40;99.90;;;;;;4972046;28;20368;-50
2023/05/15 06:31:51;;;;;;;27.67;13.90;;;13.50;99.90;;;;;;4971622;28;20033;-50
2023/05/15 06:34:17;;;;;;;31.15;17.30;;;13.60;99.90;;;;;;4972104;28;20019;-50
2023/05/15 06:36:42;;;;;;;29.08;15.60;;;13.60;99.90;;;;;;4972146;28;20631;-50
2023/05/15 06:39:11;;;;;;;25.17;12.75;;;13.50;99.90;;;;;;4971762;28;20042;-50
2023/05/15 06:41:37;;;;;;;25.25;13.15;;;13.70;99.90;;;;;;4971568;28;20117;-51
2023/05/15 06:44:03;;;;;;;27.02;12.95;;;13.70;99.90;;;;;;4971839;28;20082;-50
2023/05/15 06:46:29;;;;;;;24.70;12.68;;;13.70;99.90;;;;;;4972039;28;20035;-53
2023/05/15 06:48:55;;;;;;;25.60;12.55;;;13.60;99.90;;;;;;4971927;28;20037;-49
2023/05/15 06:51:21;;;;;;;22.95;11.20;;;13.50;99.90;;;;;;4971624;28;20045;-49
2023/05/15 06:53:46;;;;;;;22.10;11.18;;;13.50;99.90;;;;;;4972041;28;20039;-51
2023/05/15 06:56:12;;;;;;;21.60;10.77;;;13.50;99.90;;;;;;4971803;28;20085;-49
2023/05/15 06:58:38;;;;;;;19.90;9.70;;;13.60;99.90;;;;;;4971848;28;20402;-49
2023/05/15 07:01:05;;;;;;;17.92;9.98;;;13.50;99.90;;;;;;4972127;28;20034;-49
2023/05/15 07:03:31;;;;;;;17.90;9.02;;;13.60;99.90;;;;;;4971839;28;20399;-53
2023/05/15 07:05:56;;;;;;;19.10;9.75;;;13.70;99.90;;;;;;4971942;28;20035;-52
2023/05/15 07:08:22;;;;;;;18.77;9.68;;;13.80;99.90;;;;;;4970779;28;20330;-50
2023/05/15 07:10:48;;;;;;;17.70;9.80;;;13.90;99.90;;;;;;4971864;28;20054;-50
2023/05/15 07:13:16;;;;;;;17.42;9.98;;;14.00;99.90;;;;;;4971843;28;20599;-52
2023/05/15 07:15:42;;;;;;;19.50;9.85;;;13.90;99.90;;;;;;4971891;28;20038;-54
2023/05/15 07:18:08;;;;;;;18.25;10.13;;;13.90;99.90;;;;;;4971665;28;20042;-51
2023/05/15 07:20:34;;;;;;;19.33;9.15;;;13.80;99.90;;;;;;4971362;28;20515;-50
2023/05/15 07:23:00;;;;;;;17.63;9.38;;;13.80;99.90;;;;;;4971482;28;20519;-51
2023/05/15 07:25:25;;;;;;;16.85;10.13;;;13.70;99.90;;;;;;4971487;28;20078;-50
2023/05/15 07:27:51;;;;;;;17.42;9.38;;;13.60;99.90;;;;;;4971557;28;20038;-52
2023/05/15 07:30:18;;;;;;;18.73;10.75;;;13.70;99.90;;;;;;4971458;28;20046;-53
2023/05/15 07:32:43;;;;;;;16.80;8.90;;;13.70;99.90;;;;;;4971431;28;20031;-50
2023/05/15 07:35:12;;;;;;;18.58;10.40;;;13.90;99.90;;;;;;4970655;28;20034;-52
2023/05/15 07:37:38;;;;;;;18.27;10.18;;;14.00;99.90;;;;;;4971484;28;20030;-54
2023/05/15 07:40:05;;;;;;;15.80;8.95;;;14.00;99.90;;;;;;4971353;28;20035;-54
2023/05/15 07:42:31;;;;;;;15.85;9.63;;;14.20;99.90;;;;;;4971516;28;20034;-50
2023/05/15 07:44:56;;;;;;;19.38;9.82;;;14.40;99.90;;;;;;4971593;28;20026;-51
2023/05/15 07:47:22;;;;;;;18.45;10.05;;;14.60;99.90;;;;;;4971526;28;20558;-53
2023/05/15 07:49:48;;;;;;;17.65;9.27;;;14.70;99.90;;;;;;4972445;28;20059;-52
2023/05/15 07:52:13;;;;;;;17.05;9.63;;;14.80;99.90;;;;;;4974727;28;20490;-50
2023/05/15 07:54:42;;;;;;;20.15;9.82;;;14.90;99.90;;;;;;4974870;28;20487;-50
2023/05/15 07:57:08;;;;;;;20.13;9.57;;;15.10;99.90;;;;;;4974737;28;20031;-50
2023/05/15 07:59:35;;;;;;;19.58;10.43;;;15.20;99.90;;;;;;4974789;28;20457;-50
2023/05/15 08:02:01;;;;;;;15.93;9.60;;;15.20;99.90;;;;;;4974120;28;20183;-49
2023/05/15 08:04:26;;;;;;;17.83;9.63;;;15.30;99.90;;;;;;4974609;28;20475;-51
2023/05/15 08:06:52;;;;;;;17.15;9.20;;;15.30;99.90;;;;;;4974414;28;20041;-51
2023/05/15 08:09:18;;;;;;;16.60;8.88;;;15.40;99.90;;;;;;4974483;28;20066;-54
2023/05/15 08:11:44;;;;;;;17.75;9.13;;;15.30;99.90;;;;;;4974102;28;20122;-51
2023/05/15 08:14:09;;;;;;;14.18;8.23;;;15.40;99.90;;;;;;4974424;28;20026;-50
2023/05/15 08:16:35;;;;;;;16.38;8.57;;;15.40;99.90;;;;;;4974286;28;20045;-53
2023/05/15 08:19:03;;;;;;;16.73;8.38;;;15.40;99.90;;;;;;4972947;28;20034;-49
2023/05/15 08:21:30;;;;;;;14.70;8.30;;;15.40;99.90;;;;;;4974317;28;20057;-53
2023/05/15 08:23:56;;;;;;;15.98;8.20;;;15.60;99.90;;;;;;4974203;28;20045;-50
2023/05/15 08:26:22;;;;;;;14.07;8.40;;;15.60;99.90;;;;;;4974251;28;20058;-53
2023/05/15 08:28:48;;;;;;;15.63;8.77;;;15.70;99.90;;;;;;4974248;28;20126;-52
2023/05/15 08:31:14;;;;;;;13.95;8.05;;;15.80;99.90;;;;;;4973756;28;20542;-51
2023/05/15 08:33:40;;;;;;;14.63;8.18;;;15.90;99.90;;;;;;4973827;28;20476;-53
2023/05/15 08:36:06;;;;;;;14.88;8.52;;;16.10;99.90;;;;;;4973943;28;20039;-51
2023/05/15 08:38:32;;;;;;;21.67;8.98;;;16.20;99.90;;;;;;4973975;28;20038;-50
2023/05/15 08:41:06;;;;;;;15.02;7.95;;;16.20;99.90;;;;;;4973718;28;20444;-53
2023/05/15 08:43:35;;;;;;;13.70;7.72;;;16.00;99.90;;;;;;4973757;28;20406;-50
2023/05/15 08:46:01;;;;;;;13.32;7.90;;;16.10;99.90;;;;;;4973834;28;20027;-52
2023/05/15 08:48:28;;;;;;;15.75;8.40;;;16.40;99.90;;;;;;4973633;28;20050;-52
2023/05/15 08:50:57;;;;;;;14.60;8.00;;;16.50;99.90;;;;;;4973421;28;20118;-53
2023/05/15 08:53:23;;;;;;;14.88;8.45;;;16.50;99.90;;;;;;4973586;28;20484;-50
2023/05/15 08:55:49;;;;;;;15.45;8.32;;;16.40;99.90;;;;;;4973829;28;20040;-50
2023/05/15 08:58:16;;;;;;;11.93;7.03;;;16.40;99.90;;;;;;4973488;28;20119;-51
2023/05/15 09:00:41;;;;;;;16.88;8.55;;;16.40;99.90;;;;;;4973190;28;20030;-49
2023/05/15 09:03:14;;;;;;;13.73;8.00;;;16.40;99.90;;;;;;4973138;28;20419;-52
2023/05/15 09:05:40;;;;;;;14.68;7.82;;;16.40;99.90;;;;;;4973348;28;20030;-50
2023/05/15 09:08:07;;;;;;;14.02;8.00;;;16.50;99.90;;;;;;4973368;28;20034;-50
2023/05/15 09:10:35;;;;;;;15.63;8.95;;;16.50;99.90;;;;;;4973439;28;20500;-50
2023/05/15 09:13:01;;;;;;;17.85;9.63;;;16.60;99.90;;;;;;4973145;28;20077;-51
2023/05/15 09:15:28;;;;;;;14.48;8.43;;;16.60;99.90;;;;;;4973327;28;20046;-53
2023/05/15 09:17:55;;;;;;;14.93;8.52;;;16.50;99.90;;;;;;4973200;28;20042;-51
2023/05/15 09:20:26;;;;;;;15.40;7.65;;;16.40;99.90;;;;;;4973063;28;20267;-51
2023/05/15 09:22:52;;;;;;;12.82;7.97;;;16.30;99.90;;;;;;4973008;28;20034;-49
2023/05/15 09:25:53;;;;;;;13.52;7.40;;;16.40;99.90;;;;;;4973089;28;20035;-50
2023/05/15 09:28:30;;;;;;;14.20;8.15;;;16.50;99.90;;;;;;4973104;28;20653;-50
2023/05/15 09:31:04;;;;;;;12.32;7.38;;;16.50;99.90;;;;;;4972680;28;20042;-51
2023/05/15 09:33:34;;;;;;;12.73;7.38;;;16.50;99.90;;;;;;4971553;28;20045;-50
2023/05/15 09:36:02;;;;;;;15.98;7.38;;;16.60;99.90;;;;;;4972815;28;20427;-52
2023/05/15 09:38:29;;;;;;;13.30;7.22;;;16.80;99.90;;;;;;4972793;28;20031;-52
2023/05/15 09:41:06;;;;;;;17.25;9.15;;;16.70;99.90;;;;;;4972455;28;20038;-51
2023/05/15 09:43:39;;;;;;;12.65;7.45;;;16.90;99.90;;;;;;4972481;28;20046;-49
2023/05/15 09:46:07;;;;;;;11.95;7.18;;;17.20;99.90;;;;;;4972771;28;20672;-52
2023/05/15 09:48:34;;;;;;;12.43;6.38;;;17.40;99.90;;;;;;4972618;28;20064;-51
2023/05/15 09:51:01;;;;;;;16.98;7.38;;;17.40;99.90;;;;;;4972218;28;20030;-54
2023/05/15 09:53:28;;;;;;;12.88;7.43;;;17.60;99.90;;;;;;4972552;28;20053;-50
2023/05/15 09:55:54;;;;;;;10.07;6.35;;;17.80;99.90;;;;;;4972564;28;20035;-51
2023/05/15 09:58:20;;;;;;;15.65;7.35;;;17.80;99.90;;;;;;4972430;28;20038;-53
2023/05/15 10:00:46;;;;;;;10.15;6.10;;;18.00;99.90;;;;;;4972095;28;20027;-52
2023/05/15 10:03:15;;;;;;;11.63;6.63;;;17.90;99.90;;;;;;4972189;28;20039;-50
2023/05/15 10:05:41;;;;;;;12.10;6.87;;;17.90;99.90;;;;;;4972127;28;20059;-51
2023/05/15 10:08:06;;;;;;;12.57;6.63;;;17.70;99.90;;;;;;4972538;28;20469;-53
2023/05/15 10:10:32;;;;;;;11.27;6.90;;;17.80;99.90;;;;;;4972060;28;20065;-51
2023/05/15 10:13:02;;;;;;;11.30;6.32;;;17.80;99.90;;;;;;4971466;28;20077;-53
2023/05/15 10:15:28;;;;;;;10.88;6.40;;;17.80;99.90;;;;;;4970872;28;20050;-50
2023/05/15 10:17:54;;;;;;;11.52;6.57;;;17.90;99.90;;;;;;4972082;28;20041;-51
2023/05/15 10:20:22;;;;;;;10.20;6.68;;;18.00;99.90;;;;;;4971795;28;20444;-50
2023/05/15 10:22:55;;;;;;;10.00;6.10;;;18.10;99.90;;;;;;4971953;28;20035;-50
2023/05/15 10:25:42;;;;;;;10.65;5.93;;;18.10;99.90;;;;;;4972447;28;20035;-52
2023/05/15 10:28:10;;;;;;;12.82;6.88;;;18.20;99.90;;;;;;4972109;28;20031;-50
2023/05/15 10:30:36;;;;;;;11.57;6.55;;;18.30;99.90;;;;;;4971766;28;20444;-52
2023/05/15 10:33:04;;;;;;;16.02;7.75;;;18.60;99.90;;;;;;4971741;28;20510;-52
2023/05/15 10:35:30;;;;;;;11.38;6.32;;;18.80;99.90;;;;;;4972130;28;20407;-53
2023/05/15 10:37:56;;;;;;;10.30;5.85;;;18.90;99.90;;;;;;4971941;28;20102;-50
2023/05/15 10:40:23;;;;;;;10.20;6.05;;;18.90;99.90;;;;;;4971726;28;20031;-50
2023/05/15 10:42:49;;;;;;;9.60;6.15;;;18.90;99.90;;;;;;4971761;28;20031;-49
2023/05/15 10:45:15;;;;;;;9.70;6.32;;;18.90;99.90;;;;;;4971863;28;20035;-49
2023/05/15 10:47:42;;;;;;;10.50;6.25;;;18.70;99.90;;;;;;4971878;28;20046;-51
2023/05/15 10:50:10;;;;;;;11.20;6.60;;;18.90;99.90;;;;;;4971448;28;20041;-49
2023/05/15 10:52:37;;;;;;;9.45;5.40;;;18.80;99.90;;;;;;4971672;28;20034;-52
2023/05/15 10:55:07;;;;;;;9.55;5.10;;;18.90;99.90;;;;;;4971739;28;20476;-51
2023/05/15 10:57:33;;;;;;;8.60;5.40;;;19.10;99.90;;;;;;4971796;28;20098;-53
2023/05/15 11:00:00;;;;;;;9.55;5.32;;;19.10;99.60;;;;;;4971687;28;20030;-53
2023/05/15 11:02:29;;;;;;;10.15;5.85;;;19.10;98.70;;;;;;4971585;28;20391;-50
2023/05/15 11:04:59;;;;;;;11.70;5.75;;;19.30;99.90;;;;;;4971852;28;20380;-50
2023/05/15 11:07:26;;;;;;;9.30;5.45;;;19.40;99.90;;;;;;4971727;28;20039;-53
2023/05/15 11:09:53;;;;;;;10.52;5.80;;;19.60;99.90;;;;;;4971827;28;20424;-51
2023/05/15 11:12:19;;;;;;;8.80;4.85;;;19.40;99.30;;;;;;4971704;28;20482;-52
2023/05/15 11:14:51;;;;;;;9.02;5.25;;;19.50;98.30;;;;;;4971650;28;20101;-51
2023/05/15 11:17:17;;;;;;;11.82;7.15;;;19.50;96.70;;;;;;4971526;28;20042;-50
2023/05/15 11:19:48;;;;;;;9.15;5.88;;;19.40;96.60;;;;;;4971609;28;20026;-51
2023/05/15 11:22:26;;;;;;;11.73;6.10;;;19.30;98.20;;;;;;4971175;28;20035;-50
2023/05/15 11:25:01;;;;;;;9.77;5.82;;;19.20;98.40;;;;;;4972624;28;20022;-51
2023/05/15 11:27:53;;;;;;;10.93;6.35;;;19.10;99.10;;;;;;4975307;28;20041;-54
2023/05/15 11:30:21;;;;;;;10.60;6.28;;;19.40;98.40;;;;;;4972931;28;20039;-50
2023/05/15 11:32:46;;;;;;;10.30;6.07;;;19.60;98.00;;;;;;4974958;28;20037;-52
2023/05/15 11:35:45;;;;;;;11.05;5.90;;;19.60;96.90;;;;;;4975034;28;20031;-53
2023/05/15 11:38:24;;;;;;;8.85;5.15;;;19.50;98.20;;;;;;4975190;28;20039;-51
2023/05/15 11:40:57;;;;;;;10.85;6.28;;;19.60;97.40;;;;;;4974963;28;20535;-51
2023/05/15 11:43:30;;;;;;;10.43;5.53;;;19.70;97.90;;;;;;4974982;28;20101;-51
2023/05/15 11:46:01;;;;;;;13.15;6.25;;;19.70;96.30;;;;;;4975410;28;20046;-50
2023/05/15 11:48:36;;;;;;;14.18;6.43;;;19.70;97.10;;;;;;4975190;28;20037;-50
2023/05/15 11:51:03;;;;;;;11.40;6.70;;;19.90;96.90;;;;;;4974827;28;20042;-52
2023/05/15 11:53:30;;;;;;;15.07;7.63;;;19.90;96.50;;;;;;4974963;28;20042;-52
2023/05/15 11:55:55;;;;;;;12.50;7.10;;;19.70;95.40;;;;;;4975109;28;20110;-54
2023/05/15 11:58:23;;;;;;;13.43;6.85;;;19.70;97.20;;;;;;4975216;28;20148;-52
2023/05/15 12:00:50;;;;;;;11.80;6.88;;;19.70;95.90;;;;;;4974937;28;20031;-50
2023/05/15 12:03:31;;;;;;;12.52;6.43;;;19.60;95.40;;;;;;4975045;28;20022;-54
2023/05/15 12:05:57;;;;;;;9.48;6.25;;;19.40;96.20;;;;;;4975086;28;20027;-52
2023/05/15 12:08:22;;;;;;;8.65;6.10;;;19.30;95.50;;;;;;4974820;28;20042;-54
2023/05/15 12:10:48;;;;;;;9.50;5.43;;;19.40;95.60;;;;;;4974668;28;20035;-51
2023/05/15 12:13:16;;;;;;;7.45;4.90;;;19.50;94.70;;;;;;4974394;28;20427;-51
2023/05/15 12:15:44;;;;;;;7.72;5.50;;;19.60;94.90;;;;;;4974704;28;20035;-51
2023/05/15 12:18:10;;;;;;;9.80;5.20;;;19.80;95.70;;;;;;4974308;28;20030;-52
2023/05/15 12:20:37;;;;;;;8.95;4.75;;;19.80;95.30;;;;;;4974229;28;20031;-53
2023/05/15 12:23:05;;;;;;;7.85;4.38;;;19.90;95.00;;;;;;4974184;28;20054;-50
2023/05/15 12:25:32;;;;;;;8.02;4.80;;;20.00;94.60;;;;;;4974484;28;20102;-51
2023/05/15 12:28:00;;;;;;;8.52;5.15;;;19.90;93.30;;;;;;4974343;28;20031;-51
2023/05/15 12:30:27;;;;;;;7.63;4.50;;;19.90;93.90;;;;;;4972816;28;20110;-51
2023/05/15 12:32:53;;;;;;;8.52;5.15;;;19.80;93.70;;;;;;4973879;28;20089;-51
2023/05/15 12:35:19;;;;;;;7.03;4.63;;;19.60;92.30;;;;;;4973761;28;20050;-50